Time;durP1;ratioP1;P1;durP2;ratioP2;P2;SDS_P1;SDS_P2;PMS_P1;PMS_P2;Temp;Humidity;BMP_temperature;BMP_pressure;BME280_temperature;BME280_humidity;BME280_pressure;Samples;Min_cycle;Max_cycle;Signal;HPM_P1;HPM_P2
2022/10/29 00:01:45;;;;;;;21.67;9.87;;;;;;;;;;31252321;28;20054;-74
2022/10/29 00:16:47;;;;;;;12.17;7.47;;;;;;;;;;31247984;28;20481;-76
2022/10/29 00:31:49;;;;;;;12.60;6.13;;;;;;;;;;31246881;28;20050;-76
2022/10/29 00:46:54;;;;;;;8.03;4.37;;;;;;;;;;31245282;28;20119;-75
2022/10/29 01:01:56;;;;;;;7.83;4.33;;;;;;;;;;31249450;28;20095;-75
2022/10/29 01:17:01;;;;;;;7.03;3.87;;;;;;;;;;31241233;28;20156;-75
2022/10/29 01:32:07;;;;;;;9.50;4.32;;;;;;;;;;31241087;28;20103;-75
2022/10/29 01:47:17;;;;;;;8.47;4.40;;;;;;;;;;31240107;28;20493;-74
2022/10/29 02:02:22;;;;;;;10.00;4.70;;;;;;;;;;31233783;28;20053;-75
2022/10/29 02:17:23;;;;;;;6.80;4.03;;;;;;;;;;31237945;28;20065;-75
2022/10/29 02:32:25;;;;;;;11.07;4.90;;;;;;;;;;31258495;28;20313;-75
2022/10/29 02:47:27;;;;;;;10.67;5.20;;;;;;;;;;31260623;28;20052;-75
2022/10/29 03:02:29;;;;;;;9.27;5.47;;;;;;;;;;31262315;28;20060;-76
2022/10/29 03:17:31;;;;;;;12.27;5.73;;;;;;;;;;31255680;28;20093;-76
2022/10/29 03:32:32;;;;;;;9.70;5.73;;;;;;;;;;31252431;28;20060;-76
2022/10/29 03:47:34;;;;;;;15.40;5.53;;;;;;;;;;31249518;28;20473;-75
2022/10/29 04:02:36;;;;;;;21.27;9.10;;;;;;;;;;31252551;28;20061;-76
2022/10/29 04:17:38;;;;;;;27.73;10.50;;;;;;;;;;31247003;28;20053;-75
2022/10/29 04:32:40;;;;;;;17.77;6.93;;;;;;;;;;31244812;28;20049;-75
2022/10/29 04:47:41;;;;;;;21.37;8.47;;;;;;;;;;31241346;28;20053;-76
2022/10/29 05:02:50;;;;;;;21.00;8.53;;;;;;;;;;31240552;28;20115;-76
2022/10/29 05:17:51;;;;;;;15.87;8.30;;;;;;;;;;31241480;28;20119;-75
2022/10/29 05:32:53;;;;;;;22.20;8.37;;;;;;;;;;31241837;28;20049;-76
2022/10/29 05:47:56;;;;;;;21.90;7.13;;;;;;;;;;31246267;28;20064;-76
2022/10/29 06:02:58;;;;;;;13.97;7.03;;;;;;;;;;31246578;28;20092;-75
2022/10/29 06:18:01;;;;;;;15.13;6.63;;;;;;;;;;31261659;28;20393;-76
2022/10/29 06:33:03;;;;;;;16.23;7.63;;;;;;;;;;31260346;28;20057;-75
2022/10/29 06:48:05;;;;;;;21.87;9.13;;;;;;;;;;31263061;28;20049;-75
2022/10/29 07:03:14;;;;;;;14.13;6.80;;;;;;;;;;31256933;28;20092;-75
2022/10/29 07:18:15;;;;;;;13.13;7.07;;;;;;;;;;31253412;28;20057;-76
2022/10/29 07:33:17;;;;;;;16.10;6.33;;;;;;;;;;31251915;28;20057;-75
2022/10/29 07:48:19;;;;;;;28.40;12.95;;;;;;;;;;31252058;28;20103;-76
2022/10/29 08:03:21;;;;;;;14.95;6.38;;;;;;;;;;31250405;28;20069;-74
2022/10/29 08:18:23;;;;;;;23.17;9.10;;;;;;;;;;31247975;28;20088;-76
2022/10/29 08:33:25;;;;;;;20.50;7.75;;;;;;;;;;31246473;28;20061;-77
2022/10/29 08:48:26;;;;;;;20.02;7.78;;;;;;;;;;31250320;28;20042;-76
2022/10/29 09:03:28;;;;;;;20.20;7.97;;;;;;;;;;31242875;28;20061;-75
2022/10/29 09:18:49;;;;;;;23.80;9.95;;;;;;;;;;31242339;28;20058;-76
2022/10/29 09:33:52;;;;;;;20.92;8.25;;;;;;;;;;31239589;28;20049;-76
2022/10/29 09:49:12;;;;;;;31.52;11.25;;;;;;;;;;31243918;28;20497;-76
2022/10/29 10:04:25;;;;;;;31.70;10.13;;;;;;;;;;31239942;28;20057;-76
2022/10/29 10:19:29;;;;;;;27.37;10.77;;;;;;;;;;31238639;28;20057;-75
2022/10/29 10:34:31;;;;;;;25.67;10.87;;;;;;;;;;31236825;28;20045;-76
2022/10/29 10:49:33;;;;;;;35.10;12.02;;;;;;;;;;31255757;28;20046;-76
2022/10/29 11:04:37;;;;;;;19.17;9.57;;;;;;;;;;31255304;28;20064;-75
2022/10/29 11:19:43;;;;;;;23.98;10.98;;;;;;;;;;31255735;28;20069;-75
2022/10/29 11:35:23;;;;;;;23.90;10.38;;;;;;;;;;31252343;28;20452;-76
2022/10/29 11:50:31;;;;;;;20.38;11.43;;;;;;;;;;31293159;28;20042;-76
2022/10/29 12:05:43;;;;;;;34.42;13.30;;;;;;;;;;31244798;28;20493;-75
2022/10/29 12:20:44;;;;;;;30.23;12.32;;;;;;;;;;31247985;28;20118;-75
2022/10/29 12:35:46;;;;;;;28.98;13.25;;;;;;;;;;31245543;28;20477;-74
2022/10/29 12:51:08;;;;;;;30.27;11.80;;;;;;;;;;31249809;28;20053;-75
2022/10/29 13:06:28;;;;;;;31.30;11.50;;;;;;;;;;31238126;28;20053;-75
2022/10/29 13:21:48;;;;;;;33.92;12.90;;;;;;;;;;31242170;28;20057;-75
2022/10/29 13:36:50;;;;;;;30.50;12.27;;;;;;;;;;31238481;28;20548;-75
2022/10/29 13:52:00;;;;;;;34.33;12.70;;;;;;;;;;31239627;28;20046;-75
2022/10/29 14:07:05;;;;;;;26.17;12.40;;;;;;;;;;31236732;28;20103;-75
2022/10/29 14:22:16;;;;;;;28.55;13.13;;;;;;;;;;31248460;28;20057;-75
2022/10/29 14:37:20;;;;;;;27.75;12.07;;;;;;;;;;31258446;28;20489;-76
2022/10/29 14:52:26;;;;;;;25.10;11.15;;;;;;;;;;31262122;28;20058;-75
2022/10/29 15:07:31;;;;;;;28.08;13.05;;;;;;;;;;31255147;28;20080;-76
2022/10/29 15:22:37;;;;;;;22.03;11.33;;;;;;;;;;31253270;28;20058;-75
2022/10/29 15:37:40;;;;;;;28.02;12.98;;;;;;;;;;31250343;28;20049;-76
2022/10/29 15:52:42;;;;;;;33.83;13.93;;;;;;;;;;31257478;28;20057;-76
2022/10/29 16:07:45;;;;;;;40.03;13.63;;;;;;;;;;31250355;28;20080;-75
2022/10/29 16:22:48;;;;;;;32.20;12.93;;;;;;;;;;31248492;28;20448;-76
2022/10/29 16:37:50;;;;;;;32.37;12.90;;;;;;;;;;31242373;28;20485;-75
2022/10/29 16:53:05;;;;;;;37.77;14.13;;;;;;;;;;31250666;28;20041;-75
2022/10/29 17:08:07;;;;;;;35.37;12.97;;;;;;;;;;31243074;28;20430;-76
2022/10/29 17:23:09;;;;;;;40.83;13.47;;;;;;;;;;31241933;28;20103;-76
2022/10/29 17:38:13;;;;;;;47.63;14.90;;;;;;;;;;31240127;28;20081;-75
2022/10/29 17:53:14;;;;;;;42.07;12.83;;;;;;;;;;31252310;28;20504;-76
2022/10/29 18:08:16;;;;;;;50.13;13.57;;;;;;;;;;31263689;28;20064;-75
2022/10/29 18:23:18;;;;;;;40.57;13.37;;;;;;;;;;31262942;28;20050;-77
2022/10/29 18:38:20;;;;;;;41.27;12.73;;;;;;;;;;31258328;28;20167;-76
2022/10/29 18:53:24;;;;;;;45.77;14.73;;;;;;;;;;31303043;28;20080;-76
2022/10/29 19:08:26;;;;;;;51.30;14.47;;;;;;;;;;31255637;28;20065;-76
2022/10/29 19:23:27;;;;;;;39.10;12.63;;;;;;;;;;31255697;28;20053;-74
2022/10/29 19:38:29;;;;;;;32.73;10.20;;;;;;;;;;31253334;28;20050;-77
2022/10/29 19:53:31;;;;;;;38.07;11.27;;;;;;;;;;31258340;28;20058;-76
2022/10/29 20:08:33;;;;;;;36.47;11.30;;;;;;;;;;31249471;28;20481;-76
2022/10/29 20:23:35;;;;;;;47.80;12.90;;;;;;;;;;31248078;28;20050;-75
2022/10/29 20:38:36;;;;;;;39.80;11.63;;;;;;;;;;31244729;28;20064;-78
2022/10/29 20:53:38;;;;;;;45.10;12.27;;;;;;;;;;31251328;28;20049;-76
2022/10/29 21:08:40;;;;;;;30.57;11.83;;;;;;;;;;31243190;28;20132;-75
2022/10/29 21:23:42;;;;;;;37.53;14.50;;;;;;;;;;31257510;28;20520;-76
2022/10/29 21:38:44;;;;;;;31.63;12.00;;;;;;;;;;31239657;28;20053;-75
2022/10/29 21:53:45;;;;;;;36.23;10.97;;;;;;;;;;31246369;28;20046;-76
2022/10/29 22:08:51;;;;;;;39.93;14.03;;;;;;;;;;31241088;28;20064;-75
2022/10/29 22:23:54;;;;;;;41.53;11.30;;;;;;;;;;31240655;28;20064;-75
2022/10/29 22:38:57;;;;;;;36.47;11.07;;;;;;;;;;31243508;28;20049;-74
2022/10/29 22:53:59;;;;;;;42.50;11.67;;;;;;;;;;31267273;28;20049;-75
2022/10/29 23:09:01;;;;;;;45.20;12.53;;;;;;;;;;31254271;28;20057;-75
2022/10/29 23:24:03;;;;;;;42.73;12.77;;;;;;;;;;31289510;28;20053;-75
2022/10/29 23:39:04;;;;;;;50.90;13.03;;;;;;;;;;31254123;28;20053;-76
2022/10/29 23:54:06;;;;;;;42.00;12.07;;;;;;;;;;31257855;28;20080;-75
